sensor_id;sensor_type;location;lat;lon;timestamp;pressure;altitude;pressure_sealevel;temperature;humidity
17060;BME280;8646;49.716;9.266;2023-04-21T00:02:45;100043.63;;;8.26;100.00
17060;BME280;8646;49.716;9.266;2023-04-21T00:05:52;100043.69;;;8.25;100.00
17060;BME280;8646;49.716;9.266;2023-04-21T00:08:55;100039.28;;;8.22;100.00
17060;BME280;8646;49.716;9.266;2023-04-21T00:11:57;100035.88;;;8.17;100.00
17060;BME280;8646;49.716;9.266;2023-04-21T00:15:01;100050.41;;;8.13;100.00
17060;BME280;8646;49.716;9.266;2023-04-21T00:18:07;100040.78;;;8.06;100.00
17060;BME280;8646;49.716;9.266;2023-04-21T00:21:11;100035.56;;;8.01;100.00
17060;BME280;8646;49.716;9.266;2023-04-21T00:24:14;100027.31;;;8.06;100.00
17060;BME280;8646;49.716;9.266;2023-04-21T00:27:17;100024.84;;;8.00;100.00
17060;BME280;8646;49.716;9.266;2023-04-21T00:30:20;100023.69;;;7.82;100.00
17060;BME280;8646;49.716;9.266;2023-04-21T00:33:23;100023.81;;;7.79;100.00
17060;BME280;8646;49.716;9.266;2023-04-21T00:36:27;100018.41;;;7.79;100.00
17060;BME280;8646;49.716;9.266;2023-04-21T00:39:30;100026.22;;;7.87;100.00
17060;BME280;8646;49.716;9.266;2023-04-21T00:42:32;100033.22;;;7.92;100.00
17060;BME280;8646;49.716;9.266;2023-04-21T00:45:35;100027.66;;;7.97;100.00
17060;BME280;8646;49.716;9.266;2023-04-21T00:48:38;100023.72;;;8.05;100.00
17060;BME280;8646;49.716;9.266;2023-04-21T00:51:42;100004.63;;;8.12;100.00
17060;BME280;8646;49.716;9.266;2023-04-21T00:54:45;100004.63;;;8.12;100.00
17060;BME280;8646;49.716;9.266;2023-04-21T00:57:49;100017.47;;;8.05;100.00
17060;BME280;8646;49.716;9.266;2023-04-21T01:00:52;100011.84;;;8.11;100.00
17060;BME280;8646;49.716;9.266;2023-04-21T01:03:56;100018.84;;;8.17;100.00
17060;BME280;8646;49.716;9.266;2023-04-21T01:07:03;100018.69;;;8.20;100.00
17060;BME280;8646;49.716;9.266;2023-04-21T01:10:07;100010.50;;;8.23;100.00
17060;BME280;8646;49.716;9.266;2023-04-21T01:13:10;100011.16;;;8.29;100.00
17060;BME280;8646;49.716;9.266;2023-04-21T01:16:15;100004.19;;;8.24;100.00
17060;BME280;8646;49.716;9.266;2023-04-21T01:19:18;100003.53;;;8.17;100.00
17060;BME280;8646;49.716;9.266;2023-04-21T01:22:23;100003.59;;;8.16;100.00
17060;BME280;8646;49.716;9.266;2023-04-21T01:25:27;100008.78;;;8.20;100.00
17060;BME280;8646;49.716;9.266;2023-04-21T01:28:30;100007.81;;;8.23;100.00
17060;BME280;8646;49.716;9.266;2023-04-21T01:31:32;99993.84;;;8.12;100.00
17060;BME280;8646;49.716;9.266;2023-04-21T01:34:35;100013.19;;;8.23;100.00
17060;BME280;8646;49.716;9.266;2023-04-21T01:37:40;100007.91;;;8.20;100.00
17060;BME280;8646;49.716;9.266;2023-04-21T01:40:43;100005.31;;;8.18;100.00
17060;BME280;8646;49.716;9.266;2023-04-21T01:43:47;100001.78;;;8.16;100.00
17060;BME280;8646;49.716;9.266;2023-04-21T01:46:50;100006.34;;;8.14;100.00
17060;BME280;8646;49.716;9.266;2023-04-21T01:49:53;100012.66;;;8.13;100.00
17060;BME280;8646;49.716;9.266;2023-04-21T01:52:57;100017.19;;;8.13;100.00
17060;BME280;8646;49.716;9.266;2023-04-21T01:56:01;100006.53;;;8.10;100.00
17060;BME280;8646;49.716;9.266;2023-04-21T01:59:03;100011.19;;;8.04;100.00
17060;BME280;8646;49.716;9.266;2023-04-21T02:02:06;100017.75;;;7.97;100.00
17060;BME280;8646;49.716;9.266;2023-04-21T02:05:10;100008.91;;;7.94;100.00
17060;BME280;8646;49.716;9.266;2023-04-21T02:08:15;100011.53;;;7.95;100.00
17060;BME280;8646;49.716;9.266;2023-04-21T02:11:18;100016.81;;;7.98;100.00
17060;BME280;8646;49.716;9.266;2023-04-21T02:14:21;100016.88;;;7.97;100.00
17060;BME280;8646;49.716;9.266;2023-04-21T02:17:24;100018.72;;;7.95;100.00
17060;BME280;8646;49.716;9.266;2023-04-21T02:20:26;100018.81;;;7.93;100.00
17060;BME280;8646;49.716;9.266;2023-04-21T02:23:31;100025.13;;;7.92;100.00
17060;BME280;8646;49.716;9.266;2023-04-21T02:26:34;100021.72;;;7.87;100.00
17060;BME280;8646;49.716;9.266;2023-04-21T02:29:36;100015.63;;;7.82;100.00
17060;BME280;8646;49.716;9.266;2023-04-21T02:32:39;100012.81;;;7.85;100.00
17060;BME280;8646;49.716;9.266;2023-04-21T02:35:42;100015.53;;;7.85;100.00
17060;BME280;8646;49.716;9.266;2023-04-21T02:38:46;100011.06;;;7.84;100.00
17060;BME280;8646;49.716;9.266;2023-04-21T02:41:49;100012.00;;;7.83;100.00
17060;BME280;8646;49.716;9.266;2023-04-21T02:44:52;100019.97;;;7.86;100.00
17060;BME280;8646;49.716;9.266;2023-04-21T02:47:55;100009.94;;;7.90;100.00
17060;BME280;8646;49.716;9.266;2023-04-21T02:50:59;100012.81;;;7.85;100.00
17060;BME280;8646;49.716;9.266;2023-04-21T02:54:04;100021.78;;;7.86;100.00
17060;BME280;8646;49.716;9.266;2023-04-21T02:57:06;100016.22;;;7.90;100.00
17060;BME280;8646;49.716;9.266;2023-04-21T03:00:10;100016.22;;;7.90;100.00
17060;BME280;8646;49.716;9.266;2023-04-21T03:03:14;100013.75;;;7.84;100.00
17060;BME280;8646;49.716;9.266;2023-04-21T03:06:17;100028.75;;;7.91;100.00
17060;BME280;8646;49.716;9.266;2023-04-21T03:09:21;100031.34;;;7.94;100.00
17060;BME280;8646;49.716;9.266;2023-04-21T03:12:24;100024.41;;;7.87;100.00
17060;BME280;8646;49.716;9.266;2023-04-21T03:15:27;100029.91;;;7.84;100.00
17060;BME280;8646;49.716;9.266;2023-04-21T03:18:33;100024.47;;;7.86;100.00
17060;BME280;8646;49.716;9.266;2023-04-21T03:21:36;100015.63;;;7.82;100.00
17060;BME280;8646;49.716;9.266;2023-04-21T03:24:41;100012.09;;;7.80;100.00
17060;BME280;8646;49.716;9.266;2023-04-21T03:27:44;100014.91;;;7.77;100.00
17060;BME280;8646;49.716;9.266;2023-04-21T03:30:46;100013.25;;;7.73;100.00
17060;BME280;8646;49.716;9.266;2023-04-21T03:33:52;100014.13;;;7.74;100.00
17060;BME280;8646;49.716;9.266;2023-04-21T03:36:55;100013.03;;;7.79;100.00
17060;BME280;8646;49.716;9.266;2023-04-21T03:39:59;100011.16;;;7.81;100.00
17060;BME280;8646;49.716;9.266;2023-04-21T03:43:02;99995.22;;;7.75;100.00
17060;BME280;8646;49.716;9.266;2023-04-21T03:46:04;100002.38;;;7.76;100.00
17060;BME280;8646;49.716;9.266;2023-04-21T03:49:07;100015.72;;;7.79;100.00
17060;BME280;8646;49.716;9.266;2023-04-21T03:52:10;100011.16;;;7.81;100.00
17060;BME280;8646;49.716;9.266;2023-04-21T03:55:14;100011.28;;;7.78;100.00
17060;BME280;8646;49.716;9.266;2023-04-21T03:58:20;100020.31;;;7.77;100.00
17060;BME280;8646;49.716;9.266;2023-04-21T04:01:23;100014.09;;;7.75;100.00
17060;BME280;8646;49.716;9.266;2023-04-21T04:04:26;100010.47;;;7.76;100.00
17060;BME280;8646;49.716;9.266;2023-04-21T04:07:30;100015.94;;;7.73;100.00
17060;BME280;8646;49.716;9.266;2023-04-21T04:10:35;100017.97;;;7.66;100.00
17060;BME280;8646;49.716;9.266;2023-04-21T04:13:37;100013.75;;;7.59;100.00
17060;BME280;8646;49.716;9.266;2023-04-21T04:16:40;100003.88;;;7.60;100.00
17060;BME280;8646;49.716;9.266;2023-04-21T04:19:43;99991.56;;;7.78;100.00
17060;BME280;8646;49.716;9.266;2023-04-21T04:22:46;99995.56;;;7.66;100.00
17060;BME280;8646;49.716;9.266;2023-04-21T04:25:50;100006.28;;;7.68;100.00
17060;BME280;8646;49.716;9.266;2023-04-21T04:28:53;100008.69;;;7.75;100.00
17060;BME280;8646;49.716;9.266;2023-04-21T04:31:57;100015.84;;;7.76;100.00
17060;BME280;8646;49.716;9.266;2023-04-21T04:35:02;99996.25;;;7.71;100.00
17060;BME280;8646;49.716;9.266;2023-04-21T04:38:05;100004.19;;;7.76;100.00
17060;BME280;8646;49.716;9.266;2023-04-21T04:41:09;100002.47;;;7.73;100.00
17060;BME280;8646;49.716;9.266;2023-04-21T04:44:14;99993.56;;;7.71;100.00
17060;BME280;8646;49.716;9.266;2023-04-21T04:47:18;99986.22;;;7.76;100.00
17060;BME280;8646;49.716;9.266;2023-04-21T04:50:24;99995.13;;;7.78;100.00
17060;BME280;8646;49.716;9.266;2023-04-21T04:53:27;99983.38;;;7.79;100.00
17060;BME280;8646;49.716;9.266;2023-04-21T04:56:31;99987.75;;;7.83;100.00
17060;BME280;8646;49.716;9.266;2023-04-21T04:59:34;99997.53;;;7.86;100.00
17060;BME280;8646;49.716;9.266;2023-04-21T05:02:37;99995.72;;;7.86;100.00
17060;BME280;8646;49.716;9.266;2023-04-21T05:05:40;99989.38;;;7.87;100.00
17060;BME280;8646;49.716;9.266;2023-04-21T05:08:43;99996.53;;;7.88;100.00
17060;BME280;8646;49.716;9.266;2023-04-21T05:11:47;100002.75;;;7.90;100.00
17060;BME280;8646;49.716;9.266;2023-04-21T05:14:50;100003.44;;;7.95;100.00
17060;BME280;8646;49.716;9.266;2023-04-21T05:17:52;100002.50;;;7.96;100.00
17060;BME280;8646;49.716;9.266;2023-04-21T05:20:55;100016.81;;;7.98;100.00
17060;BME280;8646;49.716;9.266;2023-04-21T05:23:59;100032.88;;;8.01;100.00
17060;BME280;8646;49.716;9.266;2023-04-21T05:27:03;100038.09;;;8.06;100.00
17060;BME280;8646;49.716;9.266;2023-04-21T05:30:07;100034.41;;;8.09;100.00
17060;BME280;8646;49.716;9.266;2023-04-21T05:33:10;100029.84;;;8.11;100.00
17060;BME280;8646;49.716;9.266;2023-04-21T05:36:13;100034.06;;;8.18;100.00
17060;BME280;8646;49.716;9.266;2023-04-21T05:39:15;100026.69;;;8.23;100.00
17060;BME280;8646;49.716;9.266;2023-04-21T05:42:20;100025.56;;;8.28;100.00
17060;BME280;8646;49.716;9.266;2023-04-21T05:45:23;100021.84;;;8.32;100.00
17060;BME280;8646;49.716;9.266;2023-04-21T05:48:26;100015.41;;;8.36;100.00
17060;BME280;8646;49.716;9.266;2023-04-21T05:51:29;100011.59;;;8.42;100.00
17060;BME280;8646;49.716;9.266;2023-04-21T05:54:32;100022.16;;;8.48;100.00
17060;BME280;8646;49.716;9.266;2023-04-21T05:57:36;100023.47;;;8.60;100.00
17060;BME280;8646;49.716;9.266;2023-04-21T06:00:39;100025.38;;;8.79;100.00
17060;BME280;8646;49.716;9.266;2023-04-21T06:03:42;100029.03;;;9.00;100.00
17060;BME280;8646;49.716;9.266;2023-04-21T06:06:45;100034.38;;;9.24;100.00
17060;BME280;8646;49.716;9.266;2023-04-21T06:09:49;100029.22;;;9.39;100.00
17060;BME280;8646;49.716;9.266;2023-04-21T06:12:53;100023.88;;;9.38;100.00
17060;BME280;8646;49.716;9.266;2023-04-21T06:15:56;100022.22;;;9.34;100.00
17060;BME280;8646;49.716;9.266;2023-04-21T06:18:59;100019.63;;;9.32;100.00
17060;BME280;8646;49.716;9.266;2023-04-21T06:22:02;100008.69;;;9.55;99.93
17060;BME280;8646;49.716;9.266;2023-04-21T06:25:05;100004.56;;;9.87;97.51
17060;BME280;8646;49.716;9.266;2023-04-21T06:28:09;100006.19;;;9.91;96.73
17060;BME280;8646;49.716;9.266;2023-04-21T06:31:12;100019.34;;;9.99;98.97
17060;BME280;8646;49.716;9.266;2023-04-21T06:34:16;100010.22;;;10.22;97.68
17060;BME280;8646;49.716;9.266;2023-04-21T06:37:22;100002.44;;;10.35;95.55
17060;BME280;8646;49.716;9.266;2023-04-21T06:40:25;100007.78;;;10.36;96.66
17060;BME280;8646;49.716;9.266;2023-04-21T06:43:29;99998.19;;;10.48;93.39
17060;BME280;8646;49.716;9.266;2023-04-21T06:46:32;99989.19;;;10.47;93.36
17060;BME280;8646;49.716;9.266;2023-04-21T06:49:35;99996.59;;;10.44;92.37
17060;BME280;8646;49.716;9.266;2023-04-21T06:52:38;99990.22;;;10.26;92.89
17060;BME280;8646;49.716;9.266;2023-04-21T06:55:41;99992.59;;;10.13;93.36
17060;BME280;8646;49.716;9.266;2023-04-21T06:58:45;99993.13;;;10.01;94.43
17060;BME280;8646;49.716;9.266;2023-04-21T07:01:51;99996.59;;;9.84;95.12
17060;BME280;8646;49.716;9.266;2023-04-21T07:04:54;100004.09;;;9.78;95.71
17060;BME280;8646;49.716;9.266;2023-04-21T07:07:57;99994.34;;;9.74;96.32
17060;BME280;8646;49.716;9.266;2023-04-21T07:11:01;99998.88;;;9.73;96.35
17060;BME280;8646;49.716;9.266;2023-04-21T07:14:05;99991.13;;;9.66;97.09
17060;BME280;8646;49.716;9.266;2023-04-21T07:17:08;99986.25;;;9.74;96.62
17060;BME280;8646;49.716;9.266;2023-04-21T07:20:11;99982.13;;;9.65;96.72
17060;BME280;8646;49.716;9.266;2023-04-21T07:23:14;99993.56;;;9.72;96.90
17060;BME280;8646;49.716;9.266;2023-04-21T07:26:17;99983.75;;;9.69;97.09
17060;BME280;8646;49.716;9.266;2023-04-21T07:29:21;99976.25;;;9.76;97.90
17060;BME280;8646;49.716;9.266;2023-04-21T07:32:23;99975.03;;;9.83;98.15
17060;BME280;8646;49.716;9.266;2023-04-21T07:35:26;99968.88;;;10.00;97.68
17060;BME280;8646;49.716;9.266;2023-04-21T07:38:29;99971.97;;;10.11;98.05
17060;BME280;8646;49.716;9.266;2023-04-21T07:41:33;99973.34;;;10.21;97.54
17060;BME280;8646;49.716;9.266;2023-04-21T07:44:37;99978.97;;;10.35;97.01
17060;BME280;8646;49.716;9.266;2023-04-21T07:47:39;99988.25;;;10.48;96.94
17060;BME280;8646;49.716;9.266;2023-04-21T07:50:51;99970.56;;;10.60;96.97
17060;BME280;8646;49.716;9.266;2023-04-21T07:53:54;99971.69;;;10.73;96.29
17060;BME280;8646;49.716;9.266;2023-04-21T07:56:57;99974.22;;;10.95;96.25
17060;BME280;8646;49.716;9.266;2023-04-21T08:00:01;99979.69;;;11.12;95.26
17060;BME280;8646;49.716;9.266;2023-04-21T08:03:04;99974.94;;;11.34;94.33
17060;BME280;8646;49.716;9.266;2023-04-21T08:06:07;99973.34;;;11.47;94.32
17060;BME280;8646;49.716;9.266;2023-04-21T08:09:11;99969.97;;;11.60;93.67
17060;BME280;8646;49.716;9.266;2023-04-21T08:12:16;99977.19;;;11.78;93.35
17060;BME280;8646;49.716;9.266;2023-04-21T08:15:21;99955.53;;;11.94;93.88
17060;BME280;8646;49.716;9.266;2023-04-21T08:18:23;99965.47;;;12.10;93.00
17060;BME280;8646;49.716;9.266;2023-04-21T08:21:26;99961.66;;;12.14;92.90
17060;BME280;8646;49.716;9.266;2023-04-21T08:24:31;99948.72;;;12.19;91.82
17060;BME280;8646;49.716;9.266;2023-04-21T08:27:36;99962.53;;;12.15;90.80
17060;BME280;8646;49.716;9.266;2023-04-21T08:30:41;99951.31;;;12.05;90.54
17060;BME280;8646;49.716;9.266;2023-04-21T08:33:44;99949.91;;;11.98;90.46
17060;BME280;8646;49.716;9.266;2023-04-21T08:37:01;99954.06;;;11.88;90.50
17060;BME280;8646;49.716;9.266;2023-04-21T08:40:05;99957.78;;;11.85;90.05
17060;BME280;8646;49.716;9.266;2023-04-21T08:43:08;99960.34;;;11.89;89.61
17060;BME280;8646;49.716;9.266;2023-04-21T08:46:13;99957.75;;;12.03;89.05
17060;BME280;8646;49.716;9.266;2023-04-21T08:49:18;99962.69;;;12.12;89.04
17060;BME280;8646;49.716;9.266;2023-04-21T08:52:22;99951.19;;;12.24;88.76
17060;BME280;8646;49.716;9.266;2023-04-21T08:55:27;99952.78;;;12.44;87.95
17060;BME280;8646;49.716;9.266;2023-04-21T08:58:31;99951.28;;;12.54;87.70
17060;BME280;8646;49.716;9.266;2023-04-21T09:02:05;99951.66;;;12.79;86.09
17060;BME280;8646;49.716;9.266;2023-04-21T09:05:08;99949.81;;;12.80;85.80
17060;BME280;8646;49.716;9.266;2023-04-21T09:08:13;99948.31;;;12.74;85.35
17060;BME280;8646;49.716;9.266;2023-04-21T09:11:18;99952.53;;;12.48;86.95
17060;BME280;8646;49.716;9.266;2023-04-21T09:14:21;99946.56;;;12.57;87.32
17060;BME280;8646;49.716;9.266;2023-04-21T09:17:31;99942.34;;;12.68;87.10
17060;BME280;8646;49.716;9.266;2023-04-21T09:20:37;99951.91;;;12.59;88.00
17060;BME280;8646;49.716;9.266;2023-04-21T09:23:43;99945.06;;;12.68;87.45
17060;BME280;8646;49.716;9.266;2023-04-21T09:26:49;99939.97;;;12.93;86.94
17060;BME280;8646;49.716;9.266;2023-04-21T09:29:52;99936.97;;;12.97;85.92
17060;BME280;8646;49.716;9.266;2023-04-21T09:32:57;99940.78;;;12.95;87.54
17060;BME280;8646;49.716;9.266;2023-04-21T09:36:00;99940.94;;;12.92;87.68
17060;BME280;8646;49.716;9.266;2023-04-21T09:39:05;99937.53;;;13.04;87.12
17060;BME280;8646;49.716;9.266;2023-04-21T09:42:11;99955.75;;;12.86;88.25
17060;BME280;8646;49.716;9.266;2023-04-21T09:45:13;99948.56;;;12.85;88.76
17060;BME280;8646;49.716;9.266;2023-04-21T09:48:39;99946.13;;;12.81;89.25
17060;BME280;8646;49.716;9.266;2023-04-21T09:51:44;99949.38;;;12.87;88.36
17060;BME280;8646;49.716;9.266;2023-04-21T09:54:56;99940.72;;;12.81;88.21
17060;BME280;8646;49.716;9.266;2023-04-21T09:58:05;99935.59;;;12.75;89.49
17060;BME280;8646;49.716;9.266;2023-04-21T10:01:11;99938.16;;;12.78;89.87
17060;BME280;8646;49.716;9.266;2023-04-21T10:04:17;99938.25;;;12.76;90.04
17060;BME280;8646;49.716;9.266;2023-04-21T10:07:21;99944.88;;;13.18;89.37
17060;BME280;8646;49.716;9.266;2023-04-21T10:10:26;99943.09;;;13.32;87.94
17060;BME280;8646;49.716;9.266;2023-04-21T10:13:29;99931.66;;;13.42;87.65
17060;BME280;8646;49.716;9.266;2023-04-21T10:16:34;99928.31;;;13.52;86.58
17060;BME280;8646;49.716;9.266;2023-04-21T10:19:48;99922.00;;;13.52;86.01
17060;BME280;8646;49.716;9.266;2023-04-21T10:22:56;99922.56;;;13.57;86.41
17060;BME280;8646;49.716;9.266;2023-04-21T10:26:08;99920.88;;;13.70;86.83
17060;BME280;8646;49.716;9.266;2023-04-21T10:29:11;99919.00;;;13.70;86.13
17060;BME280;8646;49.716;9.266;2023-04-21T10:32:30;99915.44;;;13.84;86.31
17060;BME280;8646;49.716;9.266;2023-04-21T10:35:58;99906.97;;;14.31;86.17
17060;BME280;8646;49.716;9.266;2023-04-21T10:39:02;99901.16;;;14.78;81.96
17060;BME280;8646;49.716;9.266;2023-04-21T10:42:19;99897.06;;;14.85;82.85
17060;BME280;8646;49.716;9.266;2023-04-21T10:45:26;99892.19;;;14.91;82.87
17060;BME280;8646;49.716;9.266;2023-04-21T10:48:35;99899.03;;;14.83;82.75
17060;BME280;8646;49.716;9.266;2023-04-21T10:52:05;99903.09;;;14.76;83.61
17060;BME280;8646;49.716;9.266;2023-04-21T10:55:09;99899.78;;;14.85;82.45
17060;BME280;8646;49.716;9.266;2023-04-21T10:58:14;99900.09;;;14.81;81.55
17060;BME280;8646;49.716;9.266;2023-04-21T11:01:17;99903.44;;;14.72;82.20
17060;BME280;8646;49.716;9.266;2023-04-21T11:04:21;99893.59;;;14.69;82.04
17060;BME280;8646;49.716;9.266;2023-04-21T11:07:26;99881.31;;;14.76;81.21
17060;BME280;8646;49.716;9.266;2023-04-21T11:10:40;99879.09;;;14.83;81.63
17060;BME280;8646;49.716;9.266;2023-04-21T11:13:45;99872.44;;;15.14;81.71
17060;BME280;8646;49.716;9.266;2023-04-21T11:16:47;99872.41;;;15.53;80.79
17060;BME280;8646;49.716;9.266;2023-04-21T11:19:51;99856.06;;;15.79;77.31
17060;BME280;8646;49.716;9.266;2023-04-21T11:22:56;99854.50;;;16.00;78.20
17060;BME280;8646;49.716;9.266;2023-04-21T11:25:59;99853.59;;;16.25;78.10
17060;BME280;8646;49.716;9.266;2023-04-21T11:29:02;99842.41;;;16.40;76.69
17060;BME280;8646;49.716;9.266;2023-04-21T11:32:06;99846.59;;;16.33;72.69
17060;BME280;8646;49.716;9.266;2023-04-21T11:35:09;99841.75;;;16.13;74.70
17060;BME280;8646;49.716;9.266;2023-04-21T11:38:14;99837.75;;;16.30;75.28
17060;BME280;8646;49.716;9.266;2023-04-21T11:41:20;99830.91;;;16.48;74.37
17060;BME280;8646;49.716;9.266;2023-04-21T11:44:33;99825.81;;;16.44;72.66
17060;BME280;8646;49.716;9.266;2023-04-21T11:47:36;99816.56;;;16.57;72.61
17060;BME280;8646;49.716;9.266;2023-04-21T11:50:46;99821.50;;;16.65;70.52
17060;BME280;8646;49.716;9.266;2023-04-21T11:53:50;99831.31;;;16.55;71.78
17060;BME280;8646;49.716;9.266;2023-04-21T11:56:53;99824.22;;;16.65;70.34
17060;BME280;8646;49.716;9.266;2023-04-21T11:59:57;99820.81;;;16.74;67.18
17060;BME280;8646;49.716;9.266;2023-04-21T12:03:01;99828.34;;;16.34;69.45
17060;BME280;8646;49.716;9.266;2023-04-21T12:06:04;99834.56;;;16.36;71.41
17060;BME280;8646;49.716;9.266;2023-04-21T12:09:15;99833.50;;;16.62;71.96
17060;BME280;8646;49.716;9.266;2023-04-21T12:12:20;99816.88;;;16.78;70.89
17060;BME280;8646;49.716;9.266;2023-04-21T12:15:23;99815.56;;;16.71;70.67
17060;BME280;8646;49.716;9.266;2023-04-21T12:18:26;99815.44;;;16.72;71.02
17060;BME280;8646;49.716;9.266;2023-04-21T12:21:29;99803.81;;;16.82;70.38
17060;BME280;8646;49.716;9.266;2023-04-21T12:24:33;99796.56;;;16.93;67.74
17060;BME280;8646;49.716;9.266;2023-04-21T12:27:37;99797.47;;;16.81;67.75
17060;BME280;8646;49.716;9.266;2023-04-21T12:30:48;99809.75;;;16.75;69.10
17060;BME280;8646;49.716;9.266;2023-04-21T12:33:51;99805.75;;;16.92;67.80
17060;BME280;8646;49.716;9.266;2023-04-21T12:36:54;99788.34;;;17.39;67.02
17060;BME280;8646;49.716;9.266;2023-04-21T12:39:58;99798.50;;;17.72;66.81
17060;BME280;8646;49.716;9.266;2023-04-21T12:43:01;99788.56;;;18.16;66.37
17060;BME280;8646;49.716;9.266;2023-04-21T12:46:04;99786.22;;;18.65;64.99
17060;BME280;8646;49.716;9.266;2023-04-21T12:49:07;99773.31;;;19.09;64.73
17060;BME280;8646;49.716;9.266;2023-04-21T12:52:11;99773.47;;;19.28;63.44
17060;BME280;8646;49.716;9.266;2023-04-21T12:55:16;99754.19;;;19.39;62.55
17060;BME280;8646;49.716;9.266;2023-04-21T12:58:18;99751.16;;;19.54;61.61
17060;BME280;8646;49.716;9.266;2023-04-21T13:01:21;99744.78;;;19.53;61.17
17060;BME280;8646;49.716;9.266;2023-04-21T13:04:24;99742.31;;;19.50;61.36
17060;BME280;8646;49.716;9.266;2023-04-21T13:07:27;99738.72;;;19.38;61.39
17060;BME280;8646;49.716;9.266;2023-04-21T13:10:33;99727.91;;;19.16;61.29
17060;BME280;8646;49.716;9.266;2023-04-21T13:13:35;99735.19;;;18.85;62.03
17060;BME280;8646;49.716;9.266;2023-04-21T13:16:39;99733.19;;;18.55;62.69
17060;BME280;8646;49.716;9.266;2023-04-21T13:19:42;99731.53;;;18.21;63.10
17060;BME280;8646;49.716;9.266;2023-04-21T13:22:45;99723.84;;;18.04;63.61
17060;BME280;8646;49.716;9.266;2023-04-21T13:25:49;99718.47;;;18.02;64.44
17060;BME280;8646;49.716;9.266;2023-04-21T13:28:53;99718.38;;;18.04;64.88
17060;BME280;8646;49.716;9.266;2023-04-21T13:31:56;99709.69;;;17.99;62.67
17060;BME280;8646;49.716;9.266;2023-04-21T13:34:58;99709.53;;;18.00;63.69
17060;BME280;8646;49.716;9.266;2023-04-21T13:38:01;99704.91;;;18.12;63.71
17060;BME280;8646;49.716;9.266;2023-04-21T13:41:05;99698.41;;;18.24;64.30
17060;BME280;8646;49.716;9.266;2023-04-21T13:44:08;99684.41;;;18.38;63.80
17060;BME280;8646;49.716;9.266;2023-04-21T13:47:11;99678.16;;;18.47;63.75
17060;BME280;8646;49.716;9.266;2023-04-21T13:50:14;99669.91;;;18.58;62.92
17060;BME280;8646;49.716;9.266;2023-04-21T13:53:17;99668.06;;;18.80;63.06
17060;BME280;8646;49.716;9.266;2023-04-21T13:56:23;99662.84;;;18.97;62.77
17060;BME280;8646;49.716;9.266;2023-04-21T13:59:26;99653.72;;;19.18;61.83
17060;BME280;8646;49.716;9.266;2023-04-21T14:02:29;99654.06;;;19.24;60.92
17060;BME280;8646;49.716;9.266;2023-04-21T14:05:32;99648.56;;;19.24;60.93
17060;BME280;8646;49.716;9.266;2023-04-21T14:08:35;99635.47;;;19.28;61.15
17060;BME280;8646;49.716;9.266;2023-04-21T14:11:39;99639.06;;;19.28;60.31
17060;BME280;8646;49.716;9.266;2023-04-21T14:14:42;99624.06;;;19.32;61.22
17060;BME280;8646;49.716;9.266;2023-04-21T14:17:45;99631.72;;;19.29;61.36
17060;BME280;8646;49.716;9.266;2023-04-21T14:20:48;99632.59;;;19.29;61.45
17060;BME280;8646;49.716;9.266;2023-04-21T14:23:51;99625.19;;;19.30;61.15
17060;BME280;8646;49.716;9.266;2023-04-21T14:26:55;99621.31;;;19.32;61.28
17060;BME280;8646;49.716;9.266;2023-04-21T14:29:58;99611.22;;;19.33;61.39
17060;BME280;8646;49.716;9.266;2023-04-21T14:33:01;99597.38;;;19.34;61.11
17060;BME280;8646;49.716;9.266;2023-04-21T14:36:04;99602.22;;;19.21;60.91
17060;BME280;8646;49.716;9.266;2023-04-21T14:39:07;99599.78;;;18.97;61.22
17060;BME280;8646;49.716;9.266;2023-04-21T14:42:12;99592.22;;;18.90;61.93
17060;BME280;8646;49.716;9.266;2023-04-21T14:45:15;99596.00;;;18.89;62.02
17060;BME280;8646;49.716;9.266;2023-04-21T14:48:17;99574.66;;;18.92;61.48
17060;BME280;8646;49.716;9.266;2023-04-21T14:51:20;99583.66;;;19.04;60.80
17060;BME280;8646;49.716;9.266;2023-04-21T14:54:23;99579.06;;;19.14;59.21
17060;BME280;8646;49.716;9.266;2023-04-21T14:57:27;99563.53;;;19.24;58.25
17060;BME280;8646;49.716;9.266;2023-04-21T15:00:30;99567.75;;;19.28;57.34
17060;BME280;8646;49.716;9.266;2023-04-21T15:03:33;99538.41;;;19.19;57.16
17060;BME280;8646;49.716;9.266;2023-04-21T15:06:36;99559.25;;;19.41;56.46
17060;BME280;8646;49.716;9.266;2023-04-21T15:09:38;99547.88;;;19.46;55.73
17060;BME280;8646;49.716;9.266;2023-04-21T15:12:44;99555.59;;;19.52;53.99
17060;BME280;8646;49.716;9.266;2023-04-21T15:15:47;99542.13;;;19.49;54.34
17060;BME280;8646;49.716;9.266;2023-04-21T15:18:52;99536.66;;;19.49;54.14
17060;BME280;8646;49.716;9.266;2023-04-21T15:21:56;99533.13;;;19.47;54.14
17060;BME280;8646;49.716;9.266;2023-04-21T15:24:58;99528.69;;;19.46;53.93
17060;BME280;8646;49.716;9.266;2023-04-21T15:28:03;99523.31;;;19.44;53.92
17060;BME280;8646;49.716;9.266;2023-04-21T15:31:07;99528.69;;;19.46;52.97
17060;BME280;8646;49.716;9.266;2023-04-21T15:34:10;99520.13;;;19.39;51.89
17060;BME280;8646;49.716;9.266;2023-04-21T15:37:13;99508.28;;;19.38;51.97
17060;BME280;8646;49.716;9.266;2023-04-21T15:40:18;99520.69;;;19.33;52.13
17060;BME280;8646;49.716;9.266;2023-04-21T15:43:22;99506.09;;;19.32;52.14
17060;BME280;8646;49.716;9.266;2023-04-21T15:46:26;99507.09;;;19.31;52.32
17060;BME280;8646;49.716;9.266;2023-04-21T15:49:29;99508.84;;;19.32;52.43
17060;BME280;8646;49.716;9.266;2023-04-21T15:52:34;99499.47;;;19.35;52.42
17060;BME280;8646;49.716;9.266;2023-04-21T15:55:37;99500.34;;;19.35;52.17
17060;BME280;8646;49.716;9.266;2023-04-21T15:58:41;99508.59;;;19.35;51.48
17060;BME280;8646;49.716;9.266;2023-04-21T16:01:44;99499.63;;;19.33;52.09
17060;BME280;8646;49.716;9.266;2023-04-21T16:04:47;99493.13;;;19.34;52.11
17060;BME280;8646;49.716;9.266;2023-04-21T16:07:50;99489.66;;;19.32;52.14
17060;BME280;8646;49.716;9.266;2023-04-21T16:10:53;99489.66;;;19.32;52.10
17060;BME280;8646;49.716;9.266;2023-04-21T16:13:57;99481.41;;;19.32;52.40
17060;BME280;8646;49.716;9.266;2023-04-21T16:17:01;99479.69;;;19.31;52.14
17060;BME280;8646;49.716;9.266;2023-04-21T16:20:05;99475.19;;;19.30;51.78
17060;BME280;8646;49.716;9.266;2023-04-21T16:23:08;99472.63;;;19.29;51.18
17060;BME280;8646;49.716;9.266;2023-04-21T16:26:11;99470.03;;;19.27;50.82